sensor_id;sensor_type;location;lat;lon;timestamp;P1;durP1;ratioP1;P2;durP2;ratioP2
35602;SDS011;21725;50.836;4.368;2023-05-27T00:02:32;20.15;;;6.03;;
35602;SDS011;21725;50.836;4.368;2023-05-27T00:05:33;13.57;;;5.97;;
35602;SDS011;21725;50.836;4.368;2023-05-27T00:08:34;15.90;;;5.13;;
35602;SDS011;21725;50.836;4.368;2023-05-27T00:11:35;23.90;;;6.05;;
35602;SDS011;21725;50.836;4.368;2023-05-27T00:14:35;18.45;;;6.00;;
35602;SDS011;21725;50.836;4.368;2023-05-27T00:17:36;22.33;;;6.10;;
35602;SDS011;21725;50.836;4.368;2023-05-27T00:20:39;21.73;;;5.68;;
35602;SDS011;21725;50.836;4.368;2023-05-27T00:23:41;18.23;;;5.10;;
35602;SDS011;21725;50.836;4.368;2023-05-27T00:26:46;17.58;;;5.18;;
35602;SDS011;21725;50.836;4.368;2023-05-27T00:29:47;20.42;;;5.82;;
35602;SDS011;21725;50.836;4.368;2023-05-27T00:32:47;14.90;;;4.82;;
35602;SDS011;21725;50.836;4.368;2023-05-27T00:35:48;16.23;;;4.60;;
35602;SDS011;21725;50.836;4.368;2023-05-27T00:38:51;18.10;;;5.57;;
35602;SDS011;21725;50.836;4.368;2023-05-27T00:41:53;21.33;;;6.03;;
35602;SDS011;21725;50.836;4.368;2023-05-27T00:44:54;19.25;;;7.05;;
35602;SDS011;21725;50.836;4.368;2023-05-27T00:47:55;17.92;;;4.47;;
35602;SDS011;21725;50.836;4.368;2023-05-27T00:50:56;19.58;;;5.72;;
35602;SDS011;21725;50.836;4.368;2023-05-27T00:53:57;25.00;;;6.35;;
35602;SDS011;21725;50.836;4.368;2023-05-27T00:56:58;14.48;;;4.43;;
35602;SDS011;21725;50.836;4.368;2023-05-27T00:59:58;16.65;;;5.65;;
35602;SDS011;21725;50.836;4.368;2023-05-27T01:02:59;19.05;;;5.68;;
35602;SDS011;21725;50.836;4.368;2023-05-27T01:12:16;13.50;;;4.43;;
35602;SDS011;21725;50.836;4.368;2023-05-27T01:15:28;19.15;;;5.75;;
35602;SDS011;21725;50.836;4.368;2023-05-27T01:18:31;19.48;;;4.85;;
35602;SDS011;21725;50.836;4.368;2023-05-27T01:21:33;20.77;;;5.93;;
35602;SDS011;21725;50.836;4.368;2023-05-27T01:24:39;16.75;;;5.35;;
35602;SDS011;21725;50.836;4.368;2023-05-27T01:27:42;17.67;;;5.97;;
35602;SDS011;21725;50.836;4.368;2023-05-27T01:30:44;24.02;;;5.95;;
35602;SDS011;21725;50.836;4.368;2023-05-27T01:33:49;14.25;;;5.00;;
35602;SDS011;21725;50.836;4.368;2023-05-27T01:37:00;20.02;;;6.03;;
35602;SDS011;21725;50.836;4.368;2023-05-27T01:40:06;20.50;;;4.97;;
35602;SDS011;21725;50.836;4.368;2023-05-27T01:43:08;21.95;;;6.45;;
35602;SDS011;21725;50.836;4.368;2023-05-27T01:46:10;19.38;;;5.45;;
35602;SDS011;21725;50.836;4.368;2023-05-27T01:49:11;14.82;;;5.15;;
35602;SDS011;21725;50.836;4.368;2023-05-27T01:52:15;23.10;;;6.80;;
35602;SDS011;21725;50.836;4.368;2023-05-27T01:55:16;16.95;;;5.28;;
35602;SDS011;21725;50.836;4.368;2023-05-27T01:58:17;22.45;;;5.60;;
35602;SDS011;21725;50.836;4.368;2023-05-27T02:01:18;20.02;;;5.55;;
35602;SDS011;21725;50.836;4.368;2023-05-27T02:04:19;21.35;;;5.80;;
35602;SDS011;21725;50.836;4.368;2023-05-27T02:07:19;21.83;;;7.22;;
35602;SDS011;21725;50.836;4.368;2023-05-27T02:10:21;12.63;;;5.78;;
35602;SDS011;21725;50.836;4.368;2023-05-27T02:13:21;13.55;;;5.55;;
35602;SDS011;21725;50.836;4.368;2023-05-27T02:16:22;19.52;;;5.40;;
35602;SDS011;21725;50.836;4.368;2023-05-27T02:19:23;17.27;;;4.97;;
35602;SDS011;21725;50.836;4.368;2023-05-27T02:22:24;20.30;;;7.80;;
35602;SDS011;21725;50.836;4.368;2023-05-27T02:25:25;17.88;;;5.03;;
35602;SDS011;21725;50.836;4.368;2023-05-27T02:28:26;19.17;;;5.22;;
35602;SDS011;21725;50.836;4.368;2023-05-27T02:31:30;20.00;;;5.00;;
35602;SDS011;21725;50.836;4.368;2023-05-27T02:34:30;18.00;;;5.22;;
35602;SDS011;21725;50.836;4.368;2023-05-27T02:37:31;17.13;;;4.93;;
35602;SDS011;21725;50.836;4.368;2023-05-27T02:40:32;19.15;;;5.47;;
35602;SDS011;21725;50.836;4.368;2023-05-27T02:43:33;29.95;;;7.45;;
35602;SDS011;21725;50.836;4.368;2023-05-27T02:46:34;21.10;;;6.55;;
35602;SDS011;21725;50.836;4.368;2023-05-27T02:49:35;19.02;;;5.85;;
35602;SDS011;21725;50.836;4.368;2023-05-27T02:52:36;16.85;;;5.78;;
35602;SDS011;21725;50.836;4.368;2023-05-27T02:55:36;17.95;;;5.93;;
35602;SDS011;21725;50.836;4.368;2023-05-27T02:58:37;22.13;;;5.95;;
35602;SDS011;21725;50.836;4.368;2023-05-27T03:01:38;22.40;;;6.78;;
35602;SDS011;21725;50.836;4.368;2023-05-27T03:04:39;22.38;;;6.90;;
35602;SDS011;21725;50.836;4.368;2023-05-27T03:07:40;17.75;;;6.15;;
35602;SDS011;21725;50.836;4.368;2023-05-27T03:10:41;14.43;;;5.13;;
35602;SDS011;21725;50.836;4.368;2023-05-27T03:13:42;19.70;;;5.57;;
35602;SDS011;21725;50.836;4.368;2023-05-27T03:16:43;26.95;;;6.70;;
35602;SDS011;21725;50.836;4.368;2023-05-27T03:19:43;16.75;;;5.57;;
35602;SDS011;21725;50.836;4.368;2023-05-27T03:22:45;18.00;;;5.70;;
35602;SDS011;21725;50.836;4.368;2023-05-27T03:25:45;20.45;;;6.25;;
35602;SDS011;21725;50.836;4.368;2023-05-27T03:28:46;26.15;;;5.88;;
35602;SDS011;21725;50.836;4.368;2023-05-27T03:31:47;19.02;;;5.82;;
35602;SDS011;21725;50.836;4.368;2023-05-27T03:34:48;19.02;;;6.13;;
35602;SDS011;21725;50.836;4.368;2023-05-27T03:37:49;19.88;;;6.50;;
35602;SDS011;21725;50.836;4.368;2023-05-27T03:40:50;23.88;;;6.10;;
35602;SDS011;21725;50.836;4.368;2023-05-27T03:43:51;22.10;;;7.47;;
35602;SDS011;21725;50.836;4.368;2023-05-27T03:46:51;19.30;;;6.15;;
35602;SDS011;21725;50.836;4.368;2023-05-27T03:49:52;21.85;;;6.40;;
35602;SDS011;21725;50.836;4.368;2023-05-27T03:52:53;24.42;;;6.43;;
35602;SDS011;21725;50.836;4.368;2023-05-27T03:55:54;18.27;;;5.28;;
35602;SDS011;21725;50.836;4.368;2023-05-27T03:58:54;22.20;;;6.00;;
35602;SDS011;21725;50.836;4.368;2023-05-27T04:01:56;34.30;;;7.32;;
35602;SDS011;21725;50.836;4.368;2023-05-27T04:04:57;15.18;;;5.82;;
35602;SDS011;21725;50.836;4.368;2023-05-27T04:07:59;23.67;;;6.25;;
35602;SDS011;21725;50.836;4.368;2023-05-27T04:11:01;19.15;;;7.25;;
35602;SDS011;21725;50.836;4.368;2023-05-27T04:14:02;22.63;;;6.18;;
35602;SDS011;21725;50.836;4.368;2023-05-27T04:17:04;19.17;;;6.22;;
35602;SDS011;21725;50.836;4.368;2023-05-27T04:20:05;15.00;;;5.63;;
35602;SDS011;21725;50.836;4.368;2023-05-27T04:23:15;20.83;;;7.40;;
35602;SDS011;21725;50.836;4.368;2023-05-27T04:26:16;14.75;;;5.97;;
35602;SDS011;21725;50.836;4.368;2023-05-27T04:29:17;25.55;;;7.75;;
35602;SDS011;21725;50.836;4.368;2023-05-27T04:32:18;19.13;;;5.90;;
35602;SDS011;21725;50.836;4.368;2023-05-27T04:35:20;18.15;;;6.82;;
35602;SDS011;21725;50.836;4.368;2023-05-27T04:38:22;22.50;;;6.65;;
35602;SDS011;21725;50.836;4.368;2023-05-27T04:41:23;15.95;;;5.43;;
35602;SDS011;21725;50.836;4.368;2023-05-27T04:44:27;21.13;;;7.45;;
35602;SDS011;21725;50.836;4.368;2023-05-27T04:47:28;17.02;;;6.40;;
35602;SDS011;21725;50.836;4.368;2023-05-27T04:50:30;18.92;;;5.65;;
35602;SDS011;21725;50.836;4.368;2023-05-27T04:53:31;23.05;;;6.35;;
35602;SDS011;21725;50.836;4.368;2023-05-27T04:56:32;22.45;;;7.10;;
35602;SDS011;21725;50.836;4.368;2023-05-27T04:59:33;21.42;;;7.18;;
35602;SDS011;21725;50.836;4.368;2023-05-27T05:02:52;19.30;;;8.32;;
35602;SDS011;21725;50.836;4.368;2023-05-27T05:06:00;19.77;;;7.55;;
35602;SDS011;21725;50.836;4.368;2023-05-27T05:09:02;30.40;;;7.80;;
35602;SDS011;21725;50.836;4.368;2023-05-27T05:12:05;19.30;;;6.78;;
35602;SDS011;21725;50.836;4.368;2023-05-27T05:26:13;27.25;;;8.32;;
35602;SDS011;21725;50.836;4.368;2023-05-27T05:29:13;18.30;;;6.55;;
35602;SDS011;21725;50.836;4.368;2023-05-27T05:32:14;21.50;;;6.88;;
35602;SDS011;21725;50.836;4.368;2023-05-27T05:35:15;23.80;;;9.07;;
35602;SDS011;21725;50.836;4.368;2023-05-27T05:38:16;28.35;;;8.02;;
35602;SDS011;21725;50.836;4.368;2023-05-27T05:41:16;22.58;;;7.05;;
35602;SDS011;21725;50.836;4.368;2023-05-27T05:44:17;21.20;;;7.57;;
35602;SDS011;21725;50.836;4.368;2023-05-27T05:47:18;19.55;;;7.00;;
35602;SDS011;21725;50.836;4.368;2023-05-27T05:50:19;19.98;;;6.78;;
35602;SDS011;21725;50.836;4.368;2023-05-27T05:53:20;21.92;;;6.72;;
35602;SDS011;21725;50.836;4.368;2023-05-27T05:56:20;21.88;;;8.70;;
35602;SDS011;21725;50.836;4.368;2023-05-27T05:59:21;19.73;;;7.05;;
35602;SDS011;21725;50.836;4.368;2023-05-27T06:02:22;19.20;;;6.78;;
35602;SDS011;21725;50.836;4.368;2023-05-27T06:05:23;23.10;;;8.65;;
35602;SDS011;21725;50.836;4.368;2023-05-27T06:08:26;17.60;;;6.93;;
35602;SDS011;21725;50.836;4.368;2023-05-27T06:11:26;22.30;;;7.22;;
35602;SDS011;21725;50.836;4.368;2023-05-27T06:14:27;21.45;;;7.80;;
35602;SDS011;21725;50.836;4.368;2023-05-27T06:17:28;20.30;;;8.05;;
35602;SDS011;21725;50.836;4.368;2023-05-27T06:20:28;24.20;;;6.90;;
35602;SDS011;21725;50.836;4.368;2023-05-27T06:23:29;19.15;;;7.55;;
35602;SDS011;21725;50.836;4.368;2023-05-27T06:26:30;15.52;;;6.45;;
35602;SDS011;21725;50.836;4.368;2023-05-27T06:29:31;22.83;;;8.13;;
35602;SDS011;21725;50.836;4.368;2023-05-27T06:32:31;17.73;;;6.68;;
35602;SDS011;21725;50.836;4.368;2023-05-27T06:35:32;22.15;;;8.63;;
35602;SDS011;21725;50.836;4.368;2023-05-27T06:38:33;19.15;;;6.72;;
35602;SDS011;21725;50.836;4.368;2023-05-27T06:41:33;18.15;;;6.30;;
35602;SDS011;21725;50.836;4.368;2023-05-27T06:44:34;18.35;;;6.18;;
35602;SDS011;21725;50.836;4.368;2023-05-27T06:47:35;16.73;;;5.90;;
35602;SDS011;21725;50.836;4.368;2023-05-27T06:50:36;18.75;;;6.18;;
35602;SDS011;21725;50.836;4.368;2023-05-27T06:53:36;16.80;;;7.72;;
35602;SDS011;21725;50.836;4.368;2023-05-27T06:56:37;18.70;;;6.68;;
35602;SDS011;21725;50.836;4.368;2023-05-27T06:59:38;15.10;;;6.50;;
35602;SDS011;21725;50.836;4.368;2023-05-27T07:02:39;17.48;;;6.88;;
35602;SDS011;21725;50.836;4.368;2023-05-27T07:05:40;17.70;;;6.43;;
35602;SDS011;21725;50.836;4.368;2023-05-27T07:08:41;17.30;;;6.35;;
35602;SDS011;21725;50.836;4.368;2023-05-27T07:11:41;19.75;;;8.18;;
35602;SDS011;21725;50.836;4.368;2023-05-27T07:14:42;17.20;;;6.28;;
35602;SDS011;21725;50.836;4.368;2023-05-27T07:17:43;23.30;;;6.47;;
35602;SDS011;21725;50.836;4.368;2023-05-27T07:20:43;17.88;;;6.88;;
35602;SDS011;21725;50.836;4.368;2023-05-27T07:23:44;16.75;;;6.65;;
35602;SDS011;21725;50.836;4.368;2023-05-27T07:26:45;24.85;;;7.30;;
35602;SDS011;21725;50.836;4.368;2023-05-27T07:29:46;17.42;;;7.07;;
35602;SDS011;21725;50.836;4.368;2023-05-27T07:32:46;20.23;;;7.40;;
35602;SDS011;21725;50.836;4.368;2023-05-27T07:35:47;15.95;;;6.55;;
35602;SDS011;21725;50.836;4.368;2023-05-27T07:38:49;15.13;;;6.47;;
35602;SDS011;21725;50.836;4.368;2023-05-27T07:41:49;22.15;;;8.00;;
35602;SDS011;21725;50.836;4.368;2023-05-27T07:44:50;19.92;;;7.20;;
35602;SDS011;21725;50.836;4.368;2023-05-27T07:47:51;14.82;;;7.22;;
35602;SDS011;21725;50.836;4.368;2023-05-27T07:50:51;21.33;;;7.18;;
35602;SDS011;21725;50.836;4.368;2023-05-27T07:53:52;24.13;;;8.73;;
35602;SDS011;21725;50.836;4.368;2023-05-27T07:56:54;18.05;;;6.93;;
35602;SDS011;21725;50.836;4.368;2023-05-27T07:59:57;15.43;;;6.40;;
35602;SDS011;21725;50.836;4.368;2023-05-27T08:02:58;14.93;;;6.53;;
35602;SDS011;21725;50.836;4.368;2023-05-27T08:05:59;20.63;;;7.45;;
35602;SDS011;21725;50.836;4.368;2023-05-27T08:09:00;20.52;;;7.68;;
35602;SDS011;21725;50.836;4.368;2023-05-27T08:12:01;21.00;;;8.35;;
35602;SDS011;21725;50.836;4.368;2023-05-27T08:15:02;19.27;;;7.65;;
35602;SDS011;21725;50.836;4.368;2023-05-27T08:18:03;21.77;;;8.35;;
35602;SDS011;21725;50.836;4.368;2023-05-27T08:21:04;20.38;;;6.38;;
35602;SDS011;21725;50.836;4.368;2023-05-27T08:24:05;19.15;;;7.82;;
35602;SDS011;21725;50.836;4.368;2023-05-27T08:27:13;14.18;;;6.93;;
35602;SDS011;21725;50.836;4.368;2023-05-27T08:30:18;22.40;;;6.75;;
35602;SDS011;21725;50.836;4.368;2023-05-27T08:33:19;17.60;;;7.05;;
35602;SDS011;21725;50.836;4.368;2023-05-27T08:36:23;16.83;;;6.20;;
35602;SDS011;21725;50.836;4.368;2023-05-27T08:39:24;18.45;;;7.03;;
35602;SDS011;21725;50.836;4.368;2023-05-27T08:42:24;19.15;;;6.47;;
35602;SDS011;21725;50.836;4.368;2023-05-27T08:45:25;18.52;;;7.50;;
35602;SDS011;21725;50.836;4.368;2023-05-27T08:48:26;19.27;;;8.30;;
35602;SDS011;21725;50.836;4.368;2023-05-27T08:51:27;19.90;;;7.95;;
35602;SDS011;21725;50.836;4.368;2023-05-27T08:54:29;16.30;;;7.30;;
35602;SDS011;21725;50.836;4.368;2023-05-27T08:57:31;18.88;;;7.15;;
35602;SDS011;21725;50.836;4.368;2023-05-27T09:00:33;20.95;;;7.72;;
35602;SDS011;21725;50.836;4.368;2023-05-27T09:03:34;16.17;;;6.90;;
35602;SDS011;21725;50.836;4.368;2023-05-27T09:06:35;18.30;;;6.18;;
35602;SDS011;21725;50.836;4.368;2023-05-27T09:09:35;13.90;;;6.60;;
35602;SDS011;21725;50.836;4.368;2023-05-27T09:12:36;23.20;;;7.82;;
35602;SDS011;21725;50.836;4.368;2023-05-27T09:15:37;17.40;;;6.45;;
35602;SDS011;21725;50.836;4.368;2023-05-27T09:18:38;19.38;;;7.43;;
35602;SDS011;21725;50.836;4.368;2023-05-27T09:21:38;16.70;;;7.65;;
35602;SDS011;21725;50.836;4.368;2023-05-27T09:24:39;18.67;;;7.30;;
35602;SDS011;21725;50.836;4.368;2023-05-27T09:27:42;16.48;;;6.43;;
35602;SDS011;21725;50.836;4.368;2023-05-27T09:30:44;23.65;;;7.30;;
35602;SDS011;21725;50.836;4.368;2023-05-27T09:33:45;20.02;;;8.20;;
35602;SDS011;21725;50.836;4.368;2023-05-27T09:36:47;13.75;;;6.38;;
35602;SDS011;21725;50.836;4.368;2023-05-27T09:39:51;21.65;;;6.60;;
35602;SDS011;21725;50.836;4.368;2023-05-27T09:42:52;22.83;;;7.35;;
35602;SDS011;21725;50.836;4.368;2023-05-27T09:49:01;17.15;;;6.53;;
35602;SDS011;21725;50.836;4.368;2023-05-27T09:52:05;19.42;;;6.65;;
35602;SDS011;21725;50.836;4.368;2023-05-27T09:55:08;21.25;;;8.88;;
35602;SDS011;21725;50.836;4.368;2023-05-27T09:58:09;25.13;;;8.45;;
35602;SDS011;21725;50.836;4.368;2023-05-27T10:01:12;15.95;;;6.72;;
35602;SDS011;21725;50.836;4.368;2023-05-27T10:04:15;17.15;;;5.97;;
35602;SDS011;21725;50.836;4.368;2023-05-27T10:07:17;18.77;;;5.82;;
35602;SDS011;21725;50.836;4.368;2023-05-27T10:10:23;14.93;;;6.65;;
35602;SDS011;21725;50.836;4.368;2023-05-27T10:13:24;17.67;;;5.93;;
35602;SDS011;21725;50.836;4.368;2023-05-27T10:16:26;17.25;;;6.07;;
35602;SDS011;21725;50.836;4.368;2023-05-27T10:19:30;13.45;;;5.55;;
35602;SDS011;21725;50.836;4.368;2023-05-27T10:22:38;26.05;;;6.70;;
35602;SDS011;21725;50.836;4.368;2023-05-27T10:25:49;10.32;;;5.05;;
35602;SDS011;21725;50.836;4.368;2023-05-27T10:31:52;15.93;;;6.03;;
35602;SDS011;21725;50.836;4.368;2023-05-27T10:34:55;18.70;;;6.50;;
35602;SDS011;21725;50.836;4.368;2023-05-27T10:37:58;15.75;;;6.07;;
35602;SDS011;21725;50.836;4.368;2023-05-27T10:41:01;14.35;;;6.45;;
35602;SDS011;21725;50.836;4.368;2023-05-27T10:44:03;16.40;;;6.13;;
35602;SDS011;21725;50.836;4.368;2023-05-27T10:47:08;15.35;;;5.93;;
35602;SDS011;21725;50.836;4.368;2023-05-27T10:50:11;16.27;;;5.75;;
35602;SDS011;21725;50.836;4.368;2023-05-27T10:53:13;16.33;;;5.68;;
35602;SDS011;21725;50.836;4.368;2023-05-27T10:56:14;13.52;;;5.05;;
35602;SDS011;21725;50.836;4.368;2023-05-27T10:59:18;15.18;;;6.80;;
35602;SDS011;21725;50.836;4.368;2023-05-27T11:02:21;14.88;;;5.45;;
35602;SDS011;21725;50.836;4.368;2023-05-27T11:05:27;13.80;;;5.78;;
35602;SDS011;21725;50.836;4.368;2023-05-27T11:08:29;19.80;;;5.22;;
35602;SDS011;21725;50.836;4.368;2023-05-27T11:11:30;19.27;;;8.27;;
35602;SDS011;21725;50.836;4.368;2023-05-27T11:14:31;21.63;;;7.35;;
35602;SDS011;21725;50.836;4.368;2023-05-27T11:17:31;21.15;;;5.80;;
35602;SDS011;21725;50.836;4.368;2023-05-27T11:20:36;18.73;;;5.75;;
35602;SDS011;21725;50.836;4.368;2023-05-27T11:23:38;14.98;;;5.47;;
35602;SDS011;21725;50.836;4.368;2023-05-27T11:26:41;22.15;;;5.65;;
35602;SDS011;21725;50.836;4.368;2023-05-27T11:29:50;13.88;;;5.03;;
35602;SDS011;21725;50.836;4.368;2023-05-27T11:32:52;14.30;;;6.20;;
35602;SDS011;21725;50.836;4.368;2023-05-27T11:39:20;15.38;;;6.65;;
35602;SDS011;21725;50.836;4.368;2023-05-27T11:42:24;13.70;;;4.78;;
35602;SDS011;21725;50.836;4.368;2023-05-27T11:45:25;15.63;;;5.78;;
35602;SDS011;21725;50.836;4.368;2023-05-27T11:48:26;15.82;;;4.60;;
35602;SDS011;21725;50.836;4.368;2023-05-27T11:51:28;20.88;;;5.30;;
35602;SDS011;21725;50.836;4.368;2023-05-27T11:54:30;17.38;;;5.90;;
35602;SDS011;21725;50.836;4.368;2023-05-27T11:57:32;13.05;;;4.68;;
35602;SDS011;21725;50.836;4.368;2023-05-27T12:00:33;15.60;;;6.25;;
35602;SDS011;21725;50.836;4.368;2023-05-27T12:03:34;19.98;;;5.38;;
35602;SDS011;21725;50.836;4.368;2023-05-27T12:06:35;12.07;;;5.85;;
35602;SDS011;21725;50.836;4.368;2023-05-27T12:09:37;14.80;;;5.47;;
35602;SDS011;21725;50.836;4.368;2023-05-27T12:12:38;10.30;;;4.30;;
35602;SDS011;21725;50.836;4.368;2023-05-27T12:15:41;15.52;;;5.05;;
35602;SDS011;21725;50.836;4.368;2023-05-27T12:18:42;16.15;;;5.13;;
35602;SDS011;21725;50.836;4.368;2023-05-27T12:21:43;10.77;;;4.53;;
35602;SDS011;21725;50.836;4.368;2023-05-27T12:24:43;12.30;;;4.90;;
35602;SDS011;21725;50.836;4.368;2023-05-27T12:27:44;16.27;;;6.38;;
35602;SDS011;21725;50.836;4.368;2023-05-27T12:30:45;14.40;;;5.78;;
35602;SDS011;21725;50.836;4.368;2023-05-27T12:33:47;15.55;;;5.13;;
35602;SDS011;21725;50.836;4.368;2023-05-27T12:36:48;17.33;;;6.00;;
35602;SDS011;21725;50.836;4.368;2023-05-27T12:39:48;14.45;;;5.35;;
35602;SDS011;21725;50.836;4.368;2023-05-27T12:42:49;13.80;;;5.40;;
35602;SDS011;21725;50.836;4.368;2023-05-27T12:45:50;13.20;;;5.38;;
35602;SDS011;21725;50.836;4.368;2023-05-27T12:48:52;16.75;;;4.90;;
35602;SDS011;21725;50.836;4.368;2023-05-27T12:51:52;15.20;;;5.15;;
35602;SDS011;21725;50.836;4.368;2023-05-27T12:54:53;14.68;;;4.55;;
35602;SDS011;21725;50.836;4.368;2023-05-27T12:57:54;13.02;;;4.82;;
35602;SDS011;21725;50.836;4.368;2023-05-27T13:00:55;13.15;;;4.85;;
35602;SDS011;21725;50.836;4.368;2023-05-27T13:03:55;14.18;;;5.10;;
35602;SDS011;21725;50.836;4.368;2023-05-27T13:06:56;15.95;;;4.30;;
35602;SDS011;21725;50.836;4.368;2023-05-27T13:10:00;11.23;;;4.72;;
35602;SDS011;21725;50.836;4.368;2023-05-27T13:13:02;11.98;;;3.88;;
35602;SDS011;21725;50.836;4.368;2023-05-27T13:16:03;12.00;;;4.57;;
35602;SDS011;21725;50.836;4.368;2023-05-27T13:19:04;14.20;;;4.57;;
35602;SDS011;21725;50.836;4.368;2023-05-27T13:22:05;15.23;;;5.28;;
35602;SDS011;21725;50.836;4.368;2023-05-27T13:25:06;18.88;;;4.85;;
35602;SDS011;21725;50.836;4.368;2023-05-27T13:28:08;10.70;;;4.85;;
35602;SDS011;21725;50.836;4.368;2023-05-27T13:31:08;11.23;;;4.43;;
35602;SDS011;21725;50.836;4.368;2023-05-27T13:34:09;17.83;;;5.93;;
35602;SDS011;21725;50.836;4.368;2023-05-27T13:37:10;20.83;;;5.60;;
35602;SDS011;21725;50.836;4.368;2023-05-27T13:40:11;18.98;;;5.35;;
35602;SDS011;21725;50.836;4.368;2023-05-27T13:43:12;11.95;;;4.43;;
35602;SDS011;21725;50.836;4.368;2023-05-27T13:46:13;10.38;;;4.97;;
35602;SDS011;21725;50.836;4.368;2023-05-27T13:49:14;16.75;;;5.55;;
35602;SDS011;21725;50.836;4.368;2023-05-27T13:52:15;13.18;;;4.18;;
35602;SDS011;21725;50.836;4.368;2023-05-27T13:55:15;12.20;;;5.45;;
35602;SDS011;21725;50.836;4.368;2023-05-27T13:58:17;17.50;;;4.28;;
35602;SDS011;21725;50.836;4.368;2023-05-27T14:01:18;10.55;;;4.43;;
35602;SDS011;21725;50.836;4.368;2023-05-27T14:04:19;13.90;;;4.75;;
35602;SDS011;21725;50.836;4.368;2023-05-27T14:07:20;9.40;;;4.10;;
35602;SDS011;21725;50.836;4.368;2023-05-27T14:10:21;11.52;;;4.50;;
35602;SDS011;21725;50.836;4.368;2023-05-27T14:13:22;15.30;;;4.93;;
35602;SDS011;21725;50.836;4.368;2023-05-27T14:16:23;12.43;;;3.90;;
35602;SDS011;21725;50.836;4.368;2023-05-27T14:19:24;16.05;;;5.03;;
35602;SDS011;21725;50.836;4.368;2023-05-27T14:22:24;9.98;;;3.60;;
35602;SDS011;21725;50.836;4.368;2023-05-27T14:25:25;11.55;;;4.25;;
35602;SDS011;21725;50.836;4.368;2023-05-27T14:28:26;15.50;;;4.97;;
35602;SDS011;21725;50.836;4.368;2023-05-27T14:31:27;11.85;;;4.00;;
35602;SDS011;21725;50.836;4.368;2023-05-27T14:34:27;14.68;;;4.88;;
35602;SDS011;21725;50.836;4.368;2023-05-27T14:37:28;13.10;;;4.40;;
35602;SDS011;21725;50.836;4.368;2023-05-27T14:40:29;10.55;;;4.45;;
35602;SDS011;21725;50.836;4.368;2023-05-27T14:43:30;14.23;;;4.45;;
35602;SDS011;21725;50.836;4.368;2023-05-27T14:46:31;10.40;;;4.03;;
35602;SDS011;21725;50.836;4.368;2023-05-27T14:49:32;20.08;;;5.07;;
35602;SDS011;21725;50.836;4.368;2023-05-27T14:52:32;11.52;;;4.35;;
35602;SDS011;21725;50.836;4.368;2023-05-27T14:55:33;10.43;;;4.97;;
35602;SDS011;21725;50.836;4.368;2023-05-27T14:58:35;11.60;;;5.03;;
35602;SDS011;21725;50.836;4.368;2023-05-27T15:01:36;15.75;;;5.13;;
35602;SDS011;21725;50.836;4.368;2023-05-27T15:04:37;13.52;;;4.68;;
35602;SDS011;21725;50.836;4.368;2023-05-27T15:07:37;11.68;;;4.20;;
35602;SDS011;21725;50.836;4.368;2023-05-27T15:10:39;13.20;;;4.45;;
35602;SDS011;21725;50.836;4.368;2023-05-27T15:13:40;12.35;;;4.20;;
35602;SDS011;21725;50.836;4.368;2023-05-27T15:16:40;15.45;;;4.50;;
35602;SDS011;21725;50.836;4.368;2023-05-27T15:19:41;12.73;;;4.55;;
35602;SDS011;21725;50.836;4.368;2023-05-27T15:22:42;15.63;;;4.07;;
35602;SDS011;21725;50.836;4.368;2023-05-27T15:25:44;9.80;;;3.60;;
35602;SDS011;21725;50.836;4.368;2023-05-27T15:28:44;8.02;;;3.70;;
35602;SDS011;21725;50.836;4.368;2023-05-27T15:31:45;10.23;;;4.13;;
35602;SDS011;21725;50.836;4.368;2023-05-27T15:34:46;14.75;;;6.40;;
35602;SDS011;21725;50.836;4.368;2023-05-27T15:37:47;10.98;;;4.43;;
35602;SDS011;21725;50.836;4.368;2023-05-27T15:40:48;14.00;;;4.10;;
35602;SDS011;21725;50.836;4.368;2023-05-27T15:43:50;10.02;;;4.15;;
35602;SDS011;21725;50.836;4.368;2023-05-27T15:46:50;11.52;;;3.72;;
35602;SDS011;21725;50.836;4.368;2023-05-27T15:49:51;9.05;;;4.35;;
35602;SDS011;21725;50.836;4.368;2023-05-27T15:52:55;15.60;;;3.70;;
35602;SDS011;21725;50.836;4.368;2023-05-27T15:55:56;10.38;;;4.35;;
35602;SDS011;21725;50.836;4.368;2023-05-27T15:58:57;10.40;;;3.58;;
35602;SDS011;21725;50.836;4.368;2023-05-27T16:01:58;15.05;;;4.45;;
35602;SDS011;21725;50.836;4.368;2023-05-27T16:04:58;14.60;;;5.82;;
35602;SDS011;21725;50.836;4.368;2023-05-27T16:07:59;16.27;;;4.85;;
35602;SDS011;21725;50.836;4.368;2023-05-27T16:11:00;10.15;;;4.75;;
35602;SDS011;21725;50.836;4.368;2023-05-27T16:14:00;12.93;;;4.80;;
35602;SDS011;21725;50.836;4.368;2023-05-27T16:17:01;7.53;;;3.55;;
35602;SDS011;21725;50.836;4.368;2023-05-27T16:20:04;12.30;;;3.95;;
35602;SDS011;21725;50.836;4.368;2023-05-27T16:23:05;12.88;;;5.13;;
35602;SDS011;21725;50.836;4.368;2023-05-27T16:26:09;13.65;;;5.18;;
35602;SDS011;21725;50.836;4.368;2023-05-27T16:29:10;10.82;;;4.10;;
35602;SDS011;21725;50.836;4.368;2023-05-27T16:32:12;10.52;;;4.18;;
35602;SDS011;21725;50.836;4.368;2023-05-27T16:35:12;9.80;;;3.72;;
35602;SDS011;21725;50.836;4.368;2023-05-27T16:38:13;16.98;;;6.65;;
35602;SDS011;21725;50.836;4.368;2023-05-27T16:41:14;9.70;;;4.40;;
35602;SDS011;21725;50.836;4.368;2023-05-27T16:44:15;11.80;;;4.97;;
35602;SDS011;21725;50.836;4.368;2023-05-27T16:47:15;13.88;;;4.20;;
35602;SDS011;21725;50.836;4.368;2023-05-27T16:50:16;14.00;;;5.13;;
35602;SDS011;21725;50.836;4.368;2023-05-27T16:53:17;12.00;;;3.60;;
35602;SDS011;21725;50.836;4.368;2023-05-27T16:56:18;10.65;;;3.28;;
35602;SDS011;21725;50.836;4.368;2023-05-27T16:59:19;11.52;;;4.65;;
35602;SDS011;21725;50.836;4.368;2023-05-27T17:02:20;10.05;;;4.28;;
35602;SDS011;21725;50.836;4.368;2023-05-27T17:05:20;9.43;;;4.10;;
35602;SDS011;21725;50.836;4.368;2023-05-27T17:08:21;9.93;;;3.92;;
35602;SDS011;21725;50.836;4.368;2023-05-27T17:11:22;11.70;;;4.65;;
35602;SDS011;21725;50.836;4.368;2023-05-27T17:14:24;10.38;;;4.32;;
35602;SDS011;21725;50.836;4.368;2023-05-27T17:17:25;14.73;;;5.22;;
35602;SDS011;21725;50.836;4.368;2023-05-27T17:20:26;13.90;;;4.20;;
35602;SDS011;21725;50.836;4.368;2023-05-27T17:23:26;8.88;;;4.07;;
35602;SDS011;21725;50.836;4.368;2023-05-27T17:26:27;12.10;;;4.20;;
35602;SDS011;21725;50.836;4.368;2023-05-27T17:29:28;13.35;;;5.30;;
35602;SDS011;21725;50.836;4.368;2023-05-27T17:32:29;13.20;;;6.20;;
35602;SDS011;21725;50.836;4.368;2023-05-27T17:35:30;13.52;;;5.50;;
35602;SDS011;21725;50.836;4.368;2023-05-27T17:38:31;15.38;;;4.07;;
35602;SDS011;21725;50.836;4.368;2023-05-27T17:41:31;10.18;;;4.63;;
35602;SDS011;21725;50.836;4.368;2023-05-27T17:44:32;9.18;;;3.60;;
35602;SDS011;21725;50.836;4.368;2023-05-27T17:47:33;9.63;;;3.63;;
35602;SDS011;21725;50.836;4.368;2023-05-27T17:50:34;10.48;;;4.40;;
35602;SDS011;21725;50.836;4.368;2023-05-27T17:53:35;13.20;;;4.68;;
35602;SDS011;21725;50.836;4.368;2023-05-27T17:56:36;11.68;;;4.88;;
35602;SDS011;21725;50.836;4.368;2023-05-27T17:59:36;8.77;;;4.55;;
35602;SDS011;21725;50.836;4.368;2023-05-27T18:02:37;11.45;;;3.55;;
35602;SDS011;21725;50.836;4.368;2023-05-27T18:05:38;9.27;;;4.07;;
35602;SDS011;21725;50.836;4.368;2023-05-27T18:08:39;9.98;;;3.63;;
35602;SDS011;21725;50.836;4.368;2023-05-27T18:23:13;11.88;;;4.85;;
35602;SDS011;21725;50.836;4.368;2023-05-27T18:26:13;19.67;;;4.65;;
35602;SDS011;21725;50.836;4.368;2023-05-27T18:29:14;11.48;;;3.83;;
35602;SDS011;21725;50.836;4.368;2023-05-27T18:32:21;13.25;;;4.95;;
35602;SDS011;21725;50.836;4.368;2023-05-27T18:35:22;10.25;;;4.70;;
35602;SDS011;21725;50.836;4.368;2023-05-27T18:38:23;12.45;;;4.88;;